createdAt,value
2023-04-09T00:02:16.608Z,7.70
2023-04-09T00:07:18.505Z,7.80
2023-04-09T00:12:20.332Z,7.70
2023-04-09T00:17:22.153Z,7.70
2023-04-09T00:22:23.945Z,7.60
2023-04-09T00:27:25.884Z,7.50
2023-04-09T00:32:27.704Z,7.50
2023-04-09T00:37:29.477Z,7.50
2023-04-09T00:42:34.906Z,7.40
2023-04-09T00:47:36.918Z,7.30
2023-04-09T00:52:38.834Z,7.30
2023-04-09T00:57:40.795Z,7.10
2023-04-09T01:02:43.350Z,7.10
2023-04-09T01:08:03.920Z,7.20
2023-04-09T01:13:27.331Z,7.20
2023-04-09T01:18:36.106Z,7.00
2023-04-09T01:23:58.492Z,6.80
2023-04-09T01:29:00.996Z,6.80
2023-04-09T01:34:03.598Z,6.80
2023-04-09T01:39:07.494Z,6.80
2023-04-09T01:44:10.491Z,6.80
2023-04-09T01:49:13.060Z,6.60
2023-04-09T01:54:16.838Z,6.70
2023-04-09T01:59:18.618Z,6.60
2023-04-09T02:04:41.418Z,6.60
2023-04-09T02:09:46.360Z,6.50
2023-04-09T02:14:51.232Z,6.50
2023-04-09T02:19:52.985Z,6.60
2023-04-09T02:24:54.739Z,6.60
2023-04-09T02:29:56.478Z,6.70
2023-04-09T02:34:58.212Z,6.70
2023-04-09T02:39:59.980Z,6.80
2023-04-09T02:45:01.792Z,6.80
2023-04-09T02:50:04.153Z,6.80
2023-04-09T02:55:06.479Z,6.60
2023-04-09T03:00:09.048Z,6.70
2023-04-09T03:05:10.826Z,6.70
2023-04-09T03:10:12.844Z,6.70
2023-04-09T03:15:14.652Z,6.40
2023-04-09T03:20:16.505Z,6.50
2023-04-09T03:25:20.860Z,6.40
2023-04-09T03:30:22.667Z,6.30
2023-04-09T03:35:24.625Z,6.30
2023-04-09T03:40:26.420Z,6.40
2023-04-09T03:45:30.064Z,6.30
2023-04-09T03:50:31.828Z,6.30
2023-04-09T03:55:33.811Z,6.30
2023-04-09T04:00:35.604Z,6.20
2023-04-09T04:05:37.351Z,6.40
2023-04-09T04:10:39.078Z,6.50
2023-04-09T04:15:44.366Z,6.40
2023-04-09T04:20:46.097Z,6.40
2023-04-09T04:25:49.170Z,6.30
2023-04-09T04:30:51.046Z,6.10
2023-04-09T04:35:52.815Z,5.90
2023-04-09T04:40:54.564Z,6.20
2023-04-09T04:45:56.495Z,6.00
2023-04-09T04:51:00.631Z,5.90
2023-04-09T04:56:02.375Z,6.00
2023-04-09T05:01:04.182Z,5.80
2023-04-09T05:06:06.054Z,5.70
2023-04-09T05:11:11.140Z,5.80
2023-04-09T05:16:17.850Z,5.80
2023-04-09T05:21:19.631Z,5.70
2023-04-09T05:26:22.690Z,5.80
2023-04-09T05:31:24.582Z,5.90
2023-04-09T05:36:27.220Z,5.90
2023-04-09T05:41:29.058Z,6.00
2023-04-09T05:46:31.409Z,6.00
2023-04-09T05:51:33.288Z,6.00
2023-04-09T05:56:35.256Z,6.00
2023-04-09T06:01:37.070Z,6.20
2023-04-09T06:06:39.452Z,6.20
2023-04-09T06:11:41.224Z,6.40
2023-04-09T06:16:43.046Z,6.60
2023-04-09T06:21:44.874Z,6.80
2023-04-09T06:26:46.616Z,7.00
2023-04-09T06:31:48.575Z,7.00
2023-04-09T06:36:50.425Z,7.20
2023-04-09T06:41:52.694Z,7.30
2023-04-09T06:46:54.468Z,7.40
2023-04-09T06:51:56.351Z,7.60
2023-04-09T06:56:58.155Z,7.80
2023-04-09T07:02:00.954Z,7.90
2023-04-09T07:07:02.900Z,8.10
2023-04-09T07:12:04.859Z,8.20
2023-04-09T07:17:06.632Z,8.40
2023-04-09T07:22:08.397Z,8.60
2023-04-09T07:27:10.426Z,8.70
2023-04-09T07:32:12.421Z,8.80
2023-04-09T07:37:14.208Z,9.10
2023-04-09T07:42:16.258Z,9.20
2023-04-09T07:47:18.142Z,9.40
2023-04-09T07:52:20.336Z,9.60
2023-04-09T07:57:22.168Z,9.70
2023-04-09T08:02:24.200Z,9.90
2023-04-09T08:07:26.266Z,10.20
2023-04-09T08:12:28.024Z,10.30
2023-04-09T08:17:30.071Z,10.60
2023-04-09T08:22:32.473Z,10.60
2023-04-09T08:27:34.800Z,10.90
2023-04-09T08:32:37.445Z,10.90
2023-04-09T08:37:39.812Z,11.20
2023-04-09T08:42:47.829Z,11.30
2023-04-09T08:47:50.997Z,11.50
2023-04-09T08:52:54.126Z,11.60
2023-04-09T08:57:56.407Z,11.70
2023-04-09T09:03:02.236Z,11.90
2023-04-09T09:08:04.353Z,12.20
2023-04-09T09:13:25.793Z,12.30
2023-04-09T09:18:42.152Z,12.40
2023-04-09T09:23:44.617Z,12.40
2023-04-09T09:28:48.152Z,12.80
2023-04-09T09:33:51.111Z,12.90
2023-04-09T09:38:54.993Z,13.30
2023-04-09T09:43:57.217Z,13.20
2023-04-09T09:48:58.990Z,13.00
2023-04-09T09:54:01.629Z,13.10
2023-04-09T09:59:18.486Z,13.50
2023-04-09T10:04:21.346Z,13.90
2023-04-09T10:09:26.499Z,13.90
2023-04-09T10:14:29.426Z,14.40
2023-04-09T10:19:40.893Z,14.50
2023-04-09T10:24:42.905Z,14.60
2023-04-09T10:29:47.541Z,14.90
2023-04-09T10:34:50.695Z,15.00
2023-04-09T10:39:53.237Z,15.30
2023-04-09T10:45:08.174Z,14.60
2023-04-09T10:50:20.391Z,15.10
2023-04-09T10:55:38.614Z,15.20
2023-04-09T11:00:43.071Z,15.80
2023-04-09T11:05:47.145Z,15.80
2023-04-09T11:10:51.748Z,15.90
2023-04-09T11:15:56.159Z,16.40
2023-04-09T11:21:03.458Z,16.40
2023-04-09T11:26:05.456Z,16.60
2023-04-09T11:31:07.455Z,16.30
2023-04-09T11:36:12.795Z,16.80
2023-04-09T11:41:14.627Z,16.40
2023-04-09T11:46:16.661Z,16.80
2023-04-09T11:51:19.308Z,17.20
2023-04-09T11:56:21.205Z,17.20
2023-04-09T12:01:23.385Z,17.00
2023-04-09T12:06:27.957Z,17.80
2023-04-09T12:11:31.628Z,17.80
2023-04-09T12:16:35.290Z,17.90
2023-04-09T12:21:47.061Z,17.60
2023-04-09T12:26:49.252Z,18.50
2023-04-09T12:31:51.109Z,18.20
2023-04-09T12:36:53.265Z,18.80
2023-04-09T12:41:55.052Z,19.20
2023-04-09T12:46:56.783Z,19.40
2023-04-09T12:51:58.620Z,19.20
2023-04-09T12:57:00.406Z,19.40
2023-04-09T13:02:02.558Z,19.60
2023-04-09T13:07:04.470Z,19.80
2023-04-09T13:12:06.944Z,20.10
2023-04-09T13:17:08.837Z,20.50
2023-04-09T13:22:10.893Z,20.20
2023-04-09T13:27:12.809Z,20.80
2023-04-09T13:32:14.699Z,20.10
2023-04-09T13:37:16.927Z,20.10
2023-04-09T13:42:19.145Z,20.00
2023-04-09T13:47:21.872Z,20.30
2023-04-09T13:52:26.776Z,20.90
2023-04-09T13:57:31.278Z,21.00
2023-04-09T14:02:33.482Z,20.00
2023-04-09T14:07:35.413Z,19.20
2023-04-09T14:12:37.335Z,18.70
2023-04-09T14:17:39.952Z,19.20
2023-04-09T14:22:43.016Z,18.90
2023-04-09T14:27:44.947Z,18.40
2023-04-09T14:32:46.919Z,18.30
2023-04-09T14:37:48.707Z,18.80
2023-04-09T14:42:50.661Z,19.10
2023-04-09T14:47:52.552Z,20.60
2023-04-09T14:52:54.346Z,21.00
2023-04-09T14:57:56.683Z,21.30
2023-04-09T15:02:58.826Z,21.60
2023-04-09T15:08:00.827Z,22.50
2023-04-09T15:13:02.601Z,21.90
2023-04-09T15:18:06.480Z,20.50
2023-04-09T15:23:08.400Z,19.80
2023-04-09T15:28:10.474Z,19.00
2023-04-09T15:33:13.378Z,18.90
2023-04-09T15:38:15.570Z,18.90
2023-04-09T15:43:17.449Z,19.50
2023-04-09T15:48:19.549Z,19.50
2023-04-09T15:53:23.847Z,18.70
2023-04-09T15:58:26.184Z,18.50
2023-04-09T16:03:27.961Z,18.40
2023-04-09T16:08:29.839Z,18.40
2023-04-09T16:13:31.754Z,18.30
2023-04-09T16:18:33.779Z,18.30
2023-04-09T16:23:35.545Z,18.20
2023-04-09T16:28:37.481Z,18.40
2023-04-09T16:33:39.231Z,18.50
2023-04-09T16:38:41.543Z,18.80
2023-04-09T16:43:43.317Z,19.10
2023-04-09T16:48:45.299Z,19.60
2023-04-09T16:53:47.264Z,19.70
2023-04-09T16:58:49.252Z,18.80
2023-04-09T17:03:51.228Z,19.10
2023-04-09T17:08:53.476Z,18.40
2023-04-09T17:13:55.719Z,18.30
2023-04-09T17:18:57.610Z,18.60
2023-04-09T17:24:01.836Z,18.10
2023-04-09T17:29:03.770Z,17.60
2023-04-09T17:34:05.532Z,17.40
2023-04-09T17:39:07.485Z,17.20
2023-04-09T17:44:09.305Z,17.10
2023-04-09T17:49:11.343Z,16.90
2023-04-09T17:54:13.355Z,16.70
2023-04-09T17:59:15.134Z,16.60
2023-04-09T18:04:17.418Z,16.30
2023-04-09T18:09:19.530Z,16.10
2023-04-09T18:14:21.924Z,16.00
2023-04-09T18:19:24.197Z,15.70
2023-04-09T18:24:26.801Z,15.60
2023-04-09T18:29:29.975Z,15.40
2023-04-09T18:34:32.036Z,15.30
2023-04-09T18:39:37.598Z,15.10
2023-04-09T18:44:40.395Z,15.00
2023-04-09T18:49:42.116Z,14.80
2023-04-09T18:54:43.935Z,14.50
2023-04-09T18:59:46.900Z,14.20
2023-04-09T19:04:48.933Z,14.10
2023-04-09T19:09:50.751Z,13.80
2023-04-09T19:14:53.738Z,13.70
2023-04-09T19:19:55.823Z,13.40
2023-04-09T19:24:57.598Z,13.40
2023-04-09T19:30:01.113Z,13.40
2023-04-09T19:35:03.380Z,13.30
2023-04-09T19:40:05.893Z,13.10
2023-04-09T19:45:08.594Z,13.10
2023-04-09T19:50:10.936Z,13.00
2023-04-09T19:55:12.771Z,13.00
2023-04-09T20:00:14.812Z,12.80
2023-04-09T20:05:21.021Z,12.80
2023-04-09T20:10:22.831Z,12.80
2023-04-09T20:15:24.877Z,13.00
2023-04-09T20:20:27.219Z,13.20
2023-04-09T20:25:34.369Z,13.60
2023-04-09T20:30:37.001Z,13.80
2023-04-09T20:35:38.835Z,13.80
2023-04-09T20:40:40.631Z,13.90
2023-04-09T20:45:42.437Z,13.90
2023-04-09T20:50:44.222Z,13.80
2023-04-09T20:55:46.507Z,13.70
2023-04-09T21:00:48.275Z,13.70
2023-04-09T21:05:50.077Z,13.60
2023-04-09T21:10:51.884Z,13.60
2023-04-09T21:15:53.927Z,13.50
2023-04-09T21:20:55.748Z,13.40
2023-04-09T21:25:57.600Z,13.40
2023-04-09T21:30:59.750Z,13.30
2023-04-09T21:36:03.512Z,13.20
2023-04-09T21:41:05.531Z,13.20
2023-04-09T21:46:07.632Z,13.10
2023-04-09T21:51:10.699Z,12.90
2023-04-09T21:56:12.451Z,13.00
2023-04-09T22:01:26.286Z,12.80
2023-04-09T22:06:31.103Z,12.70
2023-04-09T22:11:34.443Z,12.70
2023-04-09T22:16:36.470Z,12.60
2023-04-09T22:21:38.276Z,12.50
2023-04-09T22:26:42.676Z,12.50
2023-04-09T22:31:44.764Z,12.40
2023-04-09T22:36:46.744Z,12.30
2023-04-09T22:41:48.619Z,12.30
2023-04-09T22:46:50.862Z,12.20
2023-04-09T22:51:53.417Z,12.20
2023-04-09T22:56:56.754Z,12.10
2023-04-09T23:01:58.565Z,12.00
2023-04-09T23:07:00.745Z,12.00
2023-04-09T23:12:02.849Z,11.90
2023-04-09T23:17:04.611Z,11.80
2023-04-09T23:22:06.917Z,11.60
2023-04-09T23:27:08.774Z,11.60
2023-04-09T23:32:10.685Z,11.60
2023-04-09T23:37:12.499Z,11.50
2023-04-09T23:42:14.481Z,11.50
2023-04-09T23:47:16.461Z,11.40
2023-04-09T23:52:18.304Z,11.50
2023-04-09T23:57:20.398Z,11.50
